createdAt,value
2023-03-16T00:03:45.465Z,166.77
2023-03-16T00:07:47.222Z,161.45
2023-03-16T00:11:48.957Z,159.18
2023-03-16T00:15:59.445Z,154.57
2023-03-16T00:20:06.875Z,146.45
2023-03-16T00:24:08.825Z,143.93
2023-03-16T00:28:14.117Z,140.65
2023-03-16T00:32:20.991Z,137.98
2023-03-16T00:36:23.423Z,128.85
2023-03-16T00:40:25.226Z,234.60
2023-03-16T00:44:26.949Z,351.40
2023-03-16T00:48:28.692Z,293.17
2023-03-16T00:52:30.655Z,280.17
2023-03-16T00:56:32.902Z,269.50
2023-03-16T01:00:34.646Z,246.93
2023-03-16T01:04:40.116Z,233.55
2023-03-16T01:08:42.666Z,211.07
2023-03-16T01:12:45.314Z,283.80
2023-03-16T01:16:47.133Z,244.38
2023-03-16T01:20:51.164Z,278.02
2023-03-16T01:24:52.898Z,272.90
2023-03-16T01:28:56.633Z,265.05
2023-03-16T01:32:58.555Z,239.40
2023-03-16T01:37:01.235Z,279.27
2023-03-16T01:41:18.217Z,367.48
2023-03-16T01:46:04.560Z,351.70
2023-03-16T01:50:10.060Z,336.20
2023-03-16T01:54:23.836Z,329.92
2023-03-16T01:58:25.608Z,318.55
2023-03-16T02:02:32.195Z,363.92
2023-03-16T02:06:35.894Z,395.95
2023-03-16T02:10:40.355Z,426.90
2023-03-16T02:14:42.217Z,420.27
2023-03-16T02:18:44.021Z,407.25
2023-03-16T02:22:48.773Z,391.00
2023-03-16T02:27:04.995Z,381.67
2023-03-16T02:31:10.188Z,374.42
2023-03-16T02:35:13.051Z,369.08
2023-03-16T02:39:15.563Z,348.58
2023-03-16T02:43:24.460Z,346.67
2023-03-16T02:47:43.573Z,329.67
2023-03-16T02:51:46.927Z,327.35
2023-03-16T02:55:49.789Z,316.83
2023-03-16T02:59:52.592Z,314.88
2023-03-16T03:03:54.360Z,307.35
2023-03-16T03:07:56.210Z,300.58
2023-03-16T03:11:59.776Z,291.08
2023-03-16T03:16:02.002Z,284.23
2023-03-16T03:20:16.323Z,280.05
2023-03-16T03:24:18.875Z,267.83
2023-03-16T03:28:22.327Z,263.17
2023-03-16T03:32:25.952Z,250.75
2023-03-16T03:36:28.320Z,251.25
2023-03-16T03:40:30.619Z,244.90
2023-03-16T03:44:36.241Z,233.07
2023-03-16T03:48:38.031Z,229.80
2023-03-16T03:52:39.863Z,225.10
2023-03-16T03:56:41.817Z,223.85
2023-03-16T04:00:48.841Z,214.32
2023-03-16T04:04:50.742Z,208.98
2023-03-16T04:08:54.454Z,208.57
2023-03-16T04:13:01.026Z,204.95
2023-03-16T04:17:07.493Z,195.20
2023-03-16T04:21:17.242Z,193.85
2023-03-16T04:25:21.557Z,186.00
2023-03-16T04:29:25.498Z,182.73
2023-03-16T04:33:27.849Z,185.20
2023-03-16T04:37:30.121Z,182.95
2023-03-16T04:41:33.008Z,173.23
2023-03-16T04:45:42.341Z,167.25
2023-03-16T04:49:44.285Z,163.05
2023-03-16T04:53:46.553Z,156.82
2023-03-16T04:57:55.919Z,153.45
2023-03-16T05:01:58.326Z,148.57
2023-03-16T05:06:01.190Z,143.73
2023-03-16T05:10:06.187Z,138.88
2023-03-16T05:14:08.045Z,134.90
2023-03-16T05:18:22.554Z,133.43
2023-03-16T05:22:25.955Z,131.23
2023-03-16T05:26:50.232Z,128.43
2023-03-16T05:30:56.485Z,126.35
2023-03-16T05:35:03.339Z,120.63
2023-03-16T05:39:05.467Z,118.40
2023-03-16T05:43:11.895Z,118.65
2023-03-16T05:47:20.251Z,109.13
2023-03-16T05:51:28.011Z,107.38
2023-03-16T05:55:30.639Z,106.57
2023-03-16T05:59:36.011Z,107.18
2023-03-16T06:03:39.124Z,99.75
2023-03-16T06:07:44.462Z,101.10
2023-03-16T06:11:46.844Z,94.38
2023-03-16T06:15:51.245Z,93.45
2023-03-16T06:19:53.706Z,92.55
2023-03-16T06:23:56.108Z,91.68
2023-03-16T06:27:58.165Z,90.10
2023-03-16T06:32:00.539Z,85.20
2023-03-16T06:36:03.812Z,81.68
2023-03-16T06:40:11.578Z,81.18
2023-03-16T06:44:13.477Z,81.70
2023-03-16T06:48:25.669Z,75.95
2023-03-16T06:52:27.624Z,74.60
2023-03-16T06:56:31.816Z,76.03
2023-03-16T07:00:34.296Z,70.90
2023-03-16T07:04:36.120Z,69.05
2023-03-16T07:08:38.104Z,69.20
2023-03-16T07:12:42.452Z,66.65
2023-03-16T07:16:44.331Z,62.38
2023-03-16T07:20:46.417Z,62.97
2023-03-16T07:24:56.035Z,61.53
2023-03-16T07:28:58.638Z,57.67
2023-03-16T07:33:01.848Z,58.30
2023-03-16T07:37:03.922Z,54.30
2023-03-16T07:41:07.593Z,55.22
2023-03-16T07:45:12.310Z,53.33
2023-03-16T07:49:16.798Z,53.05
2023-03-16T07:53:20.398Z,52.72
2023-03-16T07:57:27.606Z,49.20
2023-03-16T08:01:29.804Z,49.15
2023-03-16T08:05:34.859Z,46.58
2023-03-16T08:09:41.820Z,44.22
2023-03-16T08:13:47.292Z,42.83
2023-03-16T08:17:49.995Z,45.13
2023-03-16T08:22:02.095Z,43.08
2023-03-16T08:26:11.598Z,41.45
2023-03-16T08:30:15.642Z,41.33
2023-03-16T08:34:22.825Z,40.95
2023-03-16T08:38:25.397Z,40.38
2023-03-16T08:42:29.020Z,37.95
2023-03-16T08:46:35.690Z,37.03
2023-03-16T08:50:38.069Z,37.85
2023-03-16T08:54:49.673Z,34.63
2023-03-16T08:58:58.609Z,33.53
2023-03-16T09:03:00.831Z,31.80
2023-03-16T09:07:08.706Z,31.35
2023-03-16T09:11:14.398Z,33.17
2023-03-16T09:15:16.436Z,32.80
2023-03-16T09:19:19.340Z,29.77
2023-03-16T09:23:21.348Z,29.80
2023-03-16T09:27:23.235Z,28.42
2023-03-16T09:31:25.781Z,28.15
2023-03-16T09:35:27.738Z,27.50
2023-03-16T09:39:30.128Z,27.02
2023-03-16T09:43:49.495Z,26.38
2023-03-16T09:47:56.803Z,27.55
2023-03-16T09:52:21.540Z,25.42
2023-03-16T09:56:33.878Z,24.45
2023-03-16T10:00:41.943Z,24.80
2023-03-16T10:09:07.079Z,22.42
2023-03-16T10:13:22.673Z,23.20
2023-03-16T10:17:31.794Z,23.55
2023-03-16T10:21:40.658Z,23.38
2023-03-16T10:25:56.746Z,22.65
2023-03-16T10:30:01.328Z,23.00
2023-03-16T10:34:06.275Z,21.83
2023-03-16T10:38:09.387Z,20.80
2023-03-16T10:42:17.168Z,19.73
2023-03-16T10:46:19.455Z,19.27
2023-03-16T10:50:25.881Z,20.00
2023-03-16T10:54:37.219Z,20.20
2023-03-16T10:58:46.442Z,19.75
2023-03-16T11:02:50.065Z,18.50
2023-03-16T11:06:56.924Z,17.80
2023-03-16T11:11:02.683Z,204.10
2023-03-16T11:15:23.631Z,241.32
2023-03-16T11:19:37.541Z,193.20
2023-03-16T11:23:44.803Z,180.00
2023-03-16T11:27:50.502Z,164.30
2023-03-16T11:32:00.842Z,157.00
2023-03-16T11:36:30.209Z,143.48
2023-03-16T11:40:49.001Z,136.05
2023-03-16T11:44:50.741Z,137.00
2023-03-16T11:49:29.403Z,132.23
2023-03-16T11:53:55.916Z,127.07
2023-03-16T11:58:33.728Z,122.93
2023-03-16T12:02:55.445Z,115.13
2023-03-16T12:07:25.937Z,113.78
2023-03-16T12:11:41.947Z,110.78
2023-03-16T12:15:53.638Z,105.55
2023-03-16T12:20:05.857Z,270.13
2023-03-16T12:24:16.805Z,244.27
2023-03-16T12:28:24.129Z,363.95
2023-03-16T12:32:44.821Z,323.30
2023-03-16T12:37:18.669Z,306.25
2023-03-16T12:41:52.562Z,286.55
2023-03-16T12:46:18.661Z,274.08
2023-03-16T12:50:21.516Z,265.48
2023-03-16T12:54:25.766Z,259.95
2023-03-16T12:58:27.585Z,245.75
2023-03-16T13:02:32.043Z,241.50
2023-03-16T13:06:36.570Z,232.77
2023-03-16T13:10:38.928Z,229.05
2023-03-16T13:14:44.211Z,228.45
2023-03-16T13:18:46.061Z,219.48
2023-03-16T13:22:51.373Z,211.40
2023-03-16T13:26:58.220Z,208.45
2023-03-16T13:31:00.688Z,202.15
2023-03-16T13:35:05.936Z,196.88
2023-03-16T13:39:22.667Z,187.95
2023-03-16T13:43:29.871Z,184.35
2023-03-16T13:47:31.785Z,181.90
2023-03-16T13:51:36.638Z,172.43
2023-03-16T13:55:39.194Z,168.10
2023-03-16T13:59:43.760Z,165.85
2023-03-16T14:03:45.571Z,160.73
2023-03-16T14:07:49.321Z,155.60
2023-03-16T14:11:51.431Z,149.95
2023-03-16T14:15:55.507Z,149.50
2023-03-16T14:20:00.622Z,142.85
2023-03-16T14:24:05.668Z,139.23
2023-03-16T14:28:07.714Z,137.18
2023-03-16T14:32:32.796Z,117.95
2023-03-16T14:36:37.212Z,115.32
2023-03-16T14:40:53.976Z,112.17
2023-03-16T14:44:58.850Z,106.72
2023-03-16T14:49:06.452Z,105.07
2023-03-16T14:53:10.205Z,100.72
2023-03-16T14:57:18.118Z,100.50
2023-03-16T15:01:20.475Z,101.03
2023-03-16T15:05:31.027Z,97.60
2023-03-16T15:09:39.305Z,92.82
2023-03-16T15:17:44.175Z,87.20
2023-03-16T15:21:46.146Z,86.35
2023-03-16T15:25:49.890Z,85.30
2023-03-16T15:29:52.343Z,84.47
2023-03-16T15:33:54.061Z,293.02
2023-03-16T15:37:56.440Z,272.92
2023-03-16T15:41:58.122Z,262.55
2023-03-16T15:46:03.723Z,236.45
2023-03-16T15:50:06.066Z,227.32
2023-03-16T15:54:09.720Z,223.98
2023-03-16T15:58:21.277Z,220.27
2023-03-16T16:02:26.242Z,210.15
2023-03-16T16:06:28.824Z,203.73
2023-03-16T16:10:31.070Z,336.50
2023-03-16T16:14:34.607Z,409.25
2023-03-16T16:18:36.698Z,356.90
2023-03-16T16:22:39.087Z,347.30
2023-03-16T16:26:55.292Z,335.00
2023-03-16T16:30:59.552Z,317.48
2023-03-16T16:35:04.677Z,309.08
2023-03-16T16:39:06.939Z,304.77
2023-03-16T16:43:11.825Z,432.02
2023-03-16T16:47:21.226Z,467.02
2023-03-16T16:51:25.440Z,451.95
2023-03-16T16:55:27.796Z,428.23
2023-03-16T16:59:33.138Z,415.40
2023-03-16T17:03:34.814Z,396.25
2023-03-16T17:07:37.554Z,390.02
2023-03-16T17:11:39.318Z,385.20
2023-03-16T17:15:41.165Z,375.77
2023-03-16T17:19:46.958Z,367.63
2023-03-16T17:23:49.132Z,360.90
2023-03-16T17:27:53.650Z,352.77
2023-03-16T17:31:55.937Z,343.33
2023-03-16T17:35:57.968Z,341.30
2023-03-16T17:40:00.843Z,331.30
2023-03-16T17:44:05.694Z,324.73
2023-03-16T17:48:13.626Z,321.42
2023-03-16T17:52:18.797Z,310.70
2023-03-16T17:56:26.930Z,308.67
2023-03-16T18:04:34.548Z,284.23
2023-03-16T18:08:36.931Z,281.15
2023-03-16T18:12:38.669Z,274.48
2023-03-16T18:16:40.806Z,274.60
2023-03-16T18:20:42.759Z,265.38
2023-03-16T18:24:45.070Z,257.50
2023-03-16T18:28:47.045Z,253.90
2023-03-16T18:32:48.833Z,250.65
2023-03-16T18:36:53.321Z,251.50
2023-03-16T18:40:55.743Z,238.85
2023-03-16T18:44:57.428Z,236.60
2023-03-16T18:49:02.218Z,229.50
2023-03-16T18:53:04.394Z,226.73
2023-03-16T18:57:16.552Z,223.45
2023-03-16T19:01:28.910Z,215.48
2023-03-16T19:05:36.924Z,221.50
2023-03-16T19:09:38.824Z,210.55
2023-03-16T19:13:40.608Z,207.90
2023-03-16T19:17:42.439Z,203.05
2023-03-16T19:21:44.187Z,189.38
2023-03-16T19:25:46.255Z,187.63
2023-03-16T19:29:52.052Z,186.70
2023-03-16T19:33:54.546Z,184.75
2023-03-16T19:37:56.707Z,181.35
2023-03-16T19:41:59.141Z,176.73
2023-03-16T19:46:00.956Z,173.55
2023-03-16T19:50:06.336Z,164.80
2023-03-16T19:54:21.530Z,165.82
2023-03-16T19:58:31.018Z,157.88
2023-03-16T20:02:43.274Z,155.20
2023-03-16T20:06:45.329Z,149.43
2023-03-16T20:10:47.380Z,147.95
2023-03-16T20:14:51.424Z,144.25
2023-03-16T20:18:55.883Z,139.98
2023-03-16T20:22:59.728Z,139.00
2023-03-16T20:27:01.701Z,138.18
2023-03-16T20:31:08.240Z,134.27
2023-03-16T20:35:19.498Z,125.53
2023-03-16T20:39:21.645Z,130.02
2023-03-16T20:43:27.070Z,124.90
2023-03-16T20:47:28.959Z,118.82
2023-03-16T20:51:30.693Z,116.90
2023-03-16T20:55:32.958Z,115.60
2023-03-16T20:59:34.815Z,113.28
2023-03-16T21:03:37.618Z,111.82
2023-03-16T21:07:39.339Z,106.63
2023-03-16T21:11:43.494Z,103.38
2023-03-16T21:15:45.870Z,100.78
2023-03-16T21:19:48.181Z,101.97
2023-03-16T21:23:49.934Z,95.63
2023-03-16T21:27:55.557Z,93.57
2023-03-16T21:31:57.253Z,93.15
2023-03-16T21:36:00.568Z,89.68
2023-03-16T21:40:02.303Z,84.60
2023-03-16T21:44:04.241Z,179.20
2023-03-16T21:48:06.279Z,252.75
2023-03-16T21:52:24.610Z,262.30
2023-03-16T21:56:26.590Z,234.05
2023-03-16T22:00:32.213Z,221.13
2023-03-16T22:04:33.937Z,206.32
2023-03-16T22:08:35.736Z,183.38
2023-03-16T22:12:37.384Z,272.05
2023-03-16T22:16:39.960Z,341.60
2023-03-16T22:20:42.345Z,324.02
2023-03-16T22:24:44.184Z,296.88
2023-03-16T22:28:50.776Z,274.55
2023-03-16T22:32:57.817Z,262.98
2023-03-16T22:37:02.422Z,249.18
2023-03-16T22:41:05.080Z,231.48
2023-03-16T22:45:28.906Z,215.90
2023-03-16T22:49:30.918Z,198.25
2023-03-16T22:53:37.741Z,189.95
2023-03-16T22:57:39.615Z,177.95
2023-03-16T23:01:43.965Z,175.48
2023-03-16T23:05:46.244Z,158.32
2023-03-16T23:09:48.619Z,143.93
2023-03-16T23:13:53.674Z,137.52
2023-03-16T23:17:56.010Z,129.07
2023-03-16T23:22:05.109Z,122.88
2023-03-16T23:26:18.924Z,111.80
2023-03-16T23:30:24.242Z,107.30
2023-03-16T23:34:26.467Z,99.55
2023-03-16T23:38:28.229Z,94.70
2023-03-16T23:42:30.186Z,90.40
2023-03-16T23:46:32.752Z,83.72
2023-03-16T23:50:36.708Z,77.47
2023-03-16T23:54:38.537Z,79.10
2023-03-16T23:58:40.952Z,74.63
